Time;durP1;ratioP1;P1;durP2;ratioP2;P2;SDS_P1;SDS_P2;PMS_P1;PMS_P2;Temp;Humidity;BMP_temperature;BMP_pressure;BME280_temperature;BME280_humidity;BME280_pressure;Samples;Min_cycle;Max_cycle;Signal;HPM_P1;HPM_P2
2023/08/23 00:02:24;;;;;;;5.93;2.63;;;15.40;99.90;;;;;;5063273;28;20264;-84
2023/08/23 00:04:51;;;;;;;4.23;2.30;;;15.40;99.90;;;;;;5059188;28;20225;-85
2023/08/23 00:07:18;;;;;;;6.73;3.00;;;15.40;99.90;;;;;;5067548;28;20251;-84
2023/08/23 00:09:46;;;;;;;6.23;2.83;;;15.40;99.90;;;;;;5066078;28;20220;-84
2023/08/23 00:12:12;;;;;;;4.37;3.10;;;15.30;99.90;;;;;;5054667;28;20212;-83
2023/08/23 00:14:39;;;;;;;4.13;2.83;;;15.30;99.90;;;;;;5056859;28;20226;-83
2023/08/23 00:17:06;;;;;;;4.87;2.60;;;15.30;99.90;;;;;;5056913;28;20304;-81
2023/08/23 00:19:33;;;;;;;3.95;2.47;;;15.20;99.90;;;;;;5057700;28;20215;-80
2023/08/23 00:21:59;;;;;;;7.30;2.93;;;15.20;99.90;;;;;;5059491;28;20821;-81
2023/08/23 00:24:26;;;;;;;4.17;2.30;;;15.20;99.90;;;;;;5059264;28;20307;-81
2023/08/23 00:26:56;;;;;;;5.38;2.90;;;15.20;99.90;;;;;;5062343;28;20685;-82
2023/08/23 00:29:23;;;;;;;4.37;2.40;;;15.20;99.90;;;;;;5059479;28;20276;-82
2023/08/23 00:31:50;;;;;;;4.03;2.50;;;15.10;99.90;;;;;;5062346;28;20858;-82
2023/08/23 00:34:16;;;;;;;3.67;2.43;;;15.10;99.90;;;;;;5053723;28;20224;-82
2023/08/23 00:36:43;;;;;;;3.90;2.53;;;15.10;99.90;;;;;;5060980;28;20234;-83
2023/08/23 00:39:10;;;;;;;3.87;2.60;;;15.10;99.90;;;;;;5057800;28;20257;-84
2023/08/23 00:41:37;;;;;;;4.37;2.67;;;15.00;99.90;;;;;;5056994;28;20223;-84
2023/08/23 00:44:05;;;;;;;5.27;3.00;;;15.00;99.90;;;;;;5081524;28;20223;-81
2023/08/23 00:46:32;;;;;;;4.10;2.70;;;15.00;99.90;;;;;;5064955;28;20306;-80
2023/08/23 00:48:59;;;;;;;3.73;2.70;;;15.00;99.90;;;;;;5064955;28;20335;-85
2023/08/23 00:51:26;;;;;;;3.77;2.70;;;14.90;99.90;;;;;;5057236;28;20836;-85
2023/08/23 00:53:53;;;;;;;3.72;2.67;;;14.90;99.90;;;;;;5065714;28;20219;-84
2023/08/23 00:56:21;;;;;;;5.75;2.80;;;14.90;99.90;;;;;;5058638;28;20223;-84
2023/08/23 00:58:47;;;;;;;4.43;3.10;;;14.90;99.90;;;;;;5056535;28;20285;-84
2023/08/23 01:01:15;;;;;;;4.43;3.10;;;14.90;99.90;;;;;;5071392;23;20271;-85
2023/08/23 01:03:42;;;;;;;3.60;2.50;;;14.80;99.90;;;;;;5098608;28;20226;-85
2023/08/23 01:06:20;;;;;;;5.00;3.00;;;14.80;99.90;;;;;;5075986;28;20231;-80
2023/08/23 01:08:56;;;;;;;5.03;2.90;;;14.80;99.90;;;;;;5078910;28;20334;-81
2023/08/23 01:11:28;;;;;;;3.93;2.93;;;14.80;99.90;;;;;;5076367;28;20272;-81
2023/08/23 01:14:02;;;;;;;4.13;2.67;;;14.80;99.90;;;;;;5084787;28;20219;-81
2023/08/23 01:16:32;;;;;;;4.37;3.00;;;14.80;99.90;;;;;;5081564;28;20896;-81
2023/08/23 01:19:00;;;;;;;6.60;3.07;;;14.80;99.90;;;;;;5077615;28;20826;-85
2023/08/23 01:21:33;;;;;;;5.03;3.20;;;14.80;99.90;;;;;;5079015;28;20222;-85
2023/08/23 01:24:08;;;;;;;4.50;3.10;;;14.90;99.90;;;;;;5083241;28;20233;-85
2023/08/23 01:26:36;;;;;;;5.77;3.40;;;14.80;99.90;;;;;;5088153;28;20284;-85
2023/08/23 01:29:03;;;;;;;5.30;3.30;;;14.80;99.90;;;;;;5092277;28;20264;-86
2023/08/23 01:31:33;;;;;;;5.00;3.43;;;14.80;99.90;;;;;;5087347;28;20223;-85
2023/08/23 01:34:06;;;;;;;3.67;2.90;;;14.80;99.90;;;;;;5088514;28;20222;-85
2023/08/23 01:36:36;;;;;;;4.70;2.90;;;14.80;99.90;;;;;;5086222;28;20274;-84
2023/08/23 01:39:05;;;;;;;4.40;3.27;;;14.70;99.90;;;;;;5090108;28;20736;-86
2023/08/23 01:41:32;;;;;;;4.70;2.90;;;14.70;99.90;;;;;;5081327;28;20295;-85
2023/08/23 01:44:00;;;;;;;4.80;3.30;;;14.70;99.90;;;;;;5081928;28;20628;-85
2023/08/23 01:46:29;;;;;;;5.13;3.80;;;14.70;99.90;;;;;;5080631;28;20238;-85
2023/08/23 01:48:55;;;;;;;4.77;3.50;;;14.70;99.90;;;;;;5082117;28;20227;-85
2023/08/23 01:51:23;;;;;;;6.27;3.60;;;14.60;99.90;;;;;;5086006;28;20239;-81
2023/08/23 01:53:50;;;;;;;5.80;3.30;;;14.60;99.90;;;;;;5089480;28;20314;-82
2023/08/23 01:56:18;;;;;;;4.87;3.40;;;14.60;99.90;;;;;;5089482;28;20855;-82
2023/08/23 01:58:46;;;;;;;5.90;4.57;;;14.60;99.90;;;;;;5087230;28;20575;-81
2023/08/23 02:01:13;;;;;;;5.50;3.90;;;14.50;99.90;;;;;;5091392;28;20215;-81
2023/08/23 02:03:39;;;;;;;6.90;4.63;;;14.50;99.90;;;;;;5106247;28;20309;-82
2023/08/23 02:06:06;;;;;;;6.43;4.17;;;14.50;99.90;;;;;;5085566;28;20227;-81
2023/08/23 02:08:33;;;;;;;6.97;4.43;;;14.40;99.90;;;;;;5097418;28;20694;-81
2023/08/23 02:11:00;;;;;;;8.27;4.20;;;14.40;99.90;;;;;;5085183;28;20229;-81
2023/08/23 02:13:28;;;;;;;5.57;3.63;;;14.40;99.90;;;;;;5087981;28;20707;-81
2023/08/23 02:15:54;;;;;;;7.07;3.90;;;14.40;99.90;;;;;;5082400;28;21058;-82
2023/08/23 02:18:21;;;;;;;6.27;4.20;;;14.40;99.90;;;;;;5080533;28;20278;-81
2023/08/23 02:20:55;;;;;;;7.30;4.00;;;14.30;99.90;;;;;;5094564;28;20761;-82
2023/08/23 02:23:22;;;;;;;4.13;3.30;;;14.30;99.90;;;;;;5087104;28;20807;-82
2023/08/23 02:25:49;;;;;;;4.67;3.47;;;14.30;99.90;;;;;;5097348;28;20234;-82
2023/08/23 02:28:16;;;;;;;5.70;3.77;;;14.40;99.90;;;;;;5103713;28;20674;-84
2023/08/23 02:30:45;;;;;;;6.83;4.50;;;14.30;99.90;;;;;;5103421;28;20329;-84
2023/08/23 02:33:11;;;;;;;6.43;4.20;;;14.30;99.90;;;;;;5087650;28;20261;-86
2023/08/23 02:35:42;;;;;;;6.87;4.53;;;14.30;99.90;;;;;;5078630;28;20669;-83
2023/08/23 02:38:09;;;;;;;5.37;4.27;;;14.20;99.90;;;;;;5101107;28;20736;-82
2023/08/23 02:40:36;;;;;;;6.60;4.03;;;14.20;99.90;;;;;;5085594;28;20225;-83
2023/08/23 02:43:03;;;;;;;6.87;4.47;;;14.20;99.90;;;;;;5085519;28;20226;-82
2023/08/23 02:45:31;;;;;;;6.30;4.57;;;14.20;99.90;;;;;;5078660;28;20829;-83
2023/08/23 02:48:00;;;;;;;6.83;4.67;;;14.20;99.90;;;;;;5076053;28;20223;-83
2023/08/23 02:50:27;;;;;;;6.67;4.53;;;14.20;99.90;;;;;;5100771;28;20223;-85
2023/08/23 02:52:54;;;;;;;7.10;4.60;;;14.20;99.90;;;;;;5099860;28;20223;-84
2023/08/23 02:55:21;;;;;;;12.30;5.43;;;14.20;99.90;;;;;;5089755;28;20230;-85
2023/08/23 02:57:48;;;;;;;7.93;5.00;;;14.10;99.90;;;;;;5086456;28;20206;-84
2023/08/23 03:00:17;;;;;;;5.30;4.07;;;14.10;99.90;;;;;;5092774;28;20762;-87
2023/08/23 03:02:44;;;;;;;5.43;4.20;;;14.10;99.90;;;;;;5080560;28;20300;-84
2023/08/23 03:05:12;;;;;;;6.80;4.00;;;14.10;99.90;;;;;;5080892;28;20222;-85
2023/08/23 03:07:39;;;;;;;6.87;4.67;;;14.00;99.90;;;;;;5080318;28;20233;-84
2023/08/23 03:10:07;;;;;;;5.87;4.87;;;14.00;99.90;;;;;;5083343;28;20291;-84
2023/08/23 03:12:35;;;;;;;5.57;4.20;;;14.00;99.90;;;;;;5098163;28;20709;-84
2023/08/23 03:15:03;;;;;;;8.53;4.93;;;14.00;99.90;;;;;;5098480;28;20222;-85
2023/08/23 03:17:30;;;;;;;6.17;4.50;;;14.00;99.90;;;;;;5082492;28;20218;-85
2023/08/23 03:19:57;;;;;;;6.00;4.37;;;14.00;99.90;;;;;;5081096;28;20218;-85
2023/08/23 03:22:26;;;;;;;6.50;4.37;;;14.10;99.90;;;;;;5075725;28;20227;-85
2023/08/23 03:24:53;;;;;;;8.03;5.53;;;14.00;99.90;;;;;;5079248;28;20229;-85
2023/08/23 03:27:20;;;;;;;8.43;5.53;;;14.00;99.90;;;;;;5082656;28;20216;-84
2023/08/23 03:29:48;;;;;;;6.47;4.77;;;14.00;99.90;;;;;;5071184;22;20621;-83
2023/08/23 03:32:16;;;;;;;7.90;5.33;;;14.00;99.90;;;;;;5039603;28;20228;-81
2023/08/23 03:34:43;;;;;;;8.63;5.70;;;14.00;99.90;;;;;;5043085;28;20220;-81
2023/08/23 03:37:09;;;;;;;6.10;4.77;;;14.00;99.90;;;;;;5043234;28;20665;-82
2023/08/23 03:39:38;;;;;;;6.60;5.30;;;14.00;99.90;;;;;;5042380;28;20312;-82
2023/08/23 03:42:06;;;;;;;7.63;5.20;;;14.00;99.90;;;;;;5038209;28;20286;-81
2023/08/23 03:44:32;;;;;;;8.50;6.10;;;13.90;99.90;;;;;;5054455;28;20255;-82
2023/08/23 03:46:59;;;;;;;8.00;5.43;;;13.90;99.90;;;;;;5043112;28;20234;-79
2023/08/23 03:49:26;;;;;;;9.77;5.63;;;13.90;99.90;;;;;;5042027;28;20727;-81
2023/08/23 03:51:53;;;;;;;8.90;4.83;;;13.90;99.90;;;;;;5042492;28;20632;-81
2023/08/23 03:54:21;;;;;;;5.07;4.07;;;13.90;99.90;;;;;;5039744;28;20220;-82
2023/08/23 03:56:49;;;;;;;7.10;5.13;;;13.90;99.90;;;;;;5042534;28;20224;-83
2023/08/23 03:59:16;;;;;;;8.63;6.10;;;13.80;99.90;;;;;;5048873;28;20258;-80
2023/08/23 04:01:43;;;;;;;8.50;6.20;;;13.80;99.90;;;;;;5041859;28;20228;-83
2023/08/23 04:04:10;;;;;;;9.63;5.77;;;13.80;99.90;;;;;;5042877;28;20218;-83
2023/08/23 04:06:41;;;;;;;9.97;6.50;;;13.80;99.90;;;;;;5042220;28;20222;-82
2023/08/23 04:09:08;;;;;;;11.77;9.17;;;13.70;99.90;;;;;;5039961;28;20224;-83
2023/08/23 04:11:35;;;;;;;9.73;7.43;;;13.80;99.90;;;;;;5047069;28;20317;-83
2023/08/23 04:14:02;;;;;;;11.47;8.77;;;13.70;99.90;;;;;;5047644;28;20992;-79
2023/08/23 04:16:29;;;;;;;14.20;7.67;;;13.70;99.90;;;;;;5045687;28;20232;-80
2023/08/23 04:18:56;;;;;;;12.77;8.47;;;13.80;99.90;;;;;;5047052;28;20715;-81
2023/08/23 04:21:24;;;;;;;15.43;9.60;;;13.80;99.90;;;;;;5039005;28;20247;-81
2023/08/23 04:23:52;;;;;;;10.70;7.90;;;13.80;99.90;;;;;;5039511;28;20558;-83
2023/08/23 04:26:19;;;;;;;13.53;8.87;;;13.80;99.90;;;;;;5045599;28;20322;-79
2023/08/23 04:28:47;;;;;;;12.97;9.60;;;13.80;99.90;;;;;;5048510;28;20390;-78
2023/08/23 04:31:17;;;;;;;12.83;9.10;;;13.90;99.90;;;;;;5048573;28;20230;-78
2023/08/23 04:33:49;;;;;;;18.67;10.90;;;13.90;99.90;;;;;;5042601;28;20760;-80
2023/08/23 04:36:16;;;;;;;18.10;10.83;;;13.90;99.90;;;;;;5050376;28;20265;-82
2023/08/23 04:38:43;;;;;;;18.07;11.13;;;13.90;99.90;;;;;;5043521;28;20220;-82
2023/08/23 04:41:10;;;;;;;15.67;10.07;;;13.90;99.90;;;;;;5039523;28;20302;-82
2023/08/23 04:43:37;;;;;;;15.13;11.37;;;14.00;99.90;;;;;;5041623;28;20226;-82
2023/08/23 04:46:08;;;;;;;14.60;9.80;;;14.00;99.90;;;;;;5037913;28;20288;-82
2023/08/23 04:48:38;;;;;;;14.63;8.57;;;14.10;99.90;;;;;;5042728;28;20235;-82
2023/08/23 04:51:08;;;;;;;10.97;7.27;;;14.00;99.90;;;;;;5041647;28;20282;-83
2023/08/23 04:53:36;;;;;;;10.97;7.50;;;14.00;99.90;;;;;;5044105;28;20223;-82
2023/08/23 04:56:05;;;;;;;10.77;7.50;;;14.10;99.90;;;;;;5044281;28;20223;-83
2023/08/23 04:58:33;;;;;;;11.80;7.33;;;14.10;99.90;;;;;;5038937;28;20868;-82
2023/08/23 05:01:03;;;;;;;13.73;9.00;;;14.10;99.90;;;;;;5056445;28;20304;-83
2023/08/23 05:03:31;;;;;;;10.67;7.90;;;14.10;99.90;;;;;;5052232;28;20297;-83
2023/08/23 05:06:00;;;;;;;14.23;8.67;;;14.20;99.90;;;;;;5048705;28;20642;-82
2023/08/23 05:08:28;;;;;;;12.50;8.83;;;14.20;99.90;;;;;;5053970;28;20235;-81
2023/08/23 05:10:58;;;;;;;12.33;7.93;;;14.20;99.90;;;;;;5047656;28;20671;-80
2023/08/23 05:13:25;;;;;;;10.00;7.70;;;14.20;99.90;;;;;;5046553;28;20709;-82
2023/08/23 05:15:52;;;;;;;11.37;7.90;;;14.30;99.90;;;;;;5042726;28;20370;-83
2023/08/23 05:18:20;;;;;;;9.10;7.40;;;14.30;99.90;;;;;;5042273;23;20884;-82
2023/08/23 05:20:47;;;;;;;11.77;6.90;;;14.30;99.90;;;;;;5044236;28;20219;-82
2023/08/23 05:23:16;;;;;;;11.53;6.70;;;14.30;99.90;;;;;;5042633;28;20299;-82
2023/08/23 05:25:43;;;;;;;9.90;6.93;;;14.40;99.90;;;;;;5053809;28;20771;-81
2023/08/23 05:28:10;;;;;;;12.00;8.60;;;14.40;99.90;;;;;;5065030;28;20223;-80
2023/08/23 05:30:39;;;;;;;14.30;8.93;;;14.40;99.90;;;;;;5063156;28;20226;-81
2023/08/23 05:33:08;;;;;;;15.20;9.20;;;14.40;99.90;;;;;;5066670;28;20219;-80
2023/08/23 05:35:35;;;;;;;16.00;9.03;;;14.50;99.90;;;;;;5062413;28;20250;-80
2023/08/23 05:38:02;;;;;;;11.20;8.47;;;14.50;99.90;;;;;;5061632;28;20298;-81
2023/08/23 05:40:30;;;;;;;15.13;9.30;;;14.50;99.90;;;;;;5054353;28;20823;-81
2023/08/23 05:43:00;;;;;;;15.50;9.40;;;14.60;99.90;;;;;;5051552;22;20226;-82
2023/08/23 05:45:27;;;;;;;13.27;8.63;;;14.60;99.90;;;;;;5076279;28;20249;-80
2023/08/23 05:47:55;;;;;;;12.77;8.60;;;14.70;99.90;;;;;;5062189;28;20598;-81
2023/08/23 05:50:21;;;;;;;14.00;9.97;;;14.70;99.90;;;;;;5059356;28;20276;-81
2023/08/23 05:52:48;;;;;;;13.43;8.90;;;14.80;99.90;;;;;;5067249;28;20231;-80
2023/08/23 05:55:15;;;;;;;14.43;9.03;;;14.80;99.90;;;;;;5059832;28;20237;-80
2023/08/23 05:57:44;;;;;;;13.63;9.10;;;14.90;99.90;;;;;;5068476;28;20254;-80
2023/08/23 06:00:12;;;;;;;11.30;8.32;;;15.00;99.90;;;;;;5056306;28;20227;-81
2023/08/23 06:02:44;;;;;;;11.43;8.30;;;15.10;99.90;;;;;;5035879;28;20220;-80
2023/08/23 06:05:13;;;;;;;13.13;8.38;;;15.20;99.90;;;;;;5054090;28;20290;-80
2023/08/23 06:07:40;;;;;;;13.80;8.33;;;15.30;99.90;;;;;;5071567;28;20255;-79
2023/08/23 06:10:08;;;;;;;11.00;7.03;;;15.40;99.90;;;;;;5067504;28;20225;-81
2023/08/23 06:12:35;;;;;;;13.57;7.07;;;15.50;99.90;;;;;;5066551;28;20233;-82
2023/08/23 06:15:04;;;;;;;11.70;6.40;;;15.50;99.90;;;;;;5066197;28;20310;-81
2023/08/23 06:17:30;;;;;;;11.10;5.78;;;15.60;99.90;;;;;;5063924;28;20227;-83
2023/08/23 06:19:57;;;;;;;10.80;5.43;;;15.70;99.90;;;;;;5060375;28;20226;-80
2023/08/23 06:22:24;;;;;;;8.33;5.63;;;15.80;99.90;;;;;;5061603;28;20979;-82
2023/08/23 06:24:50;;;;;;;10.15;5.47;;;15.90;99.90;;;;;;5066256;28;20769;-82
2023/08/23 06:27:17;;;;;;;7.78;5.15;;;16.10;99.90;;;;;;5061229;28;20693;-82
2023/08/23 06:29:44;;;;;;;8.82;4.55;;;16.20;99.90;;;;;;5062709;28;20219;-82
2023/08/23 06:32:12;;;;;;;8.32;3.92;;;16.30;99.90;;;;;;5064162;28;20291;-82
2023/08/23 06:34:39;;;;;;;8.30;4.10;;;16.40;99.90;;;;;;5058387;28;20295;-83
2023/08/23 06:37:06;;;;;;;6.70;4.30;;;16.50;99.90;;;;;;5061706;28;20726;-82
2023/08/23 06:39:33;;;;;;;6.75;3.83;;;16.60;99.90;;;;;;5062965;28;20227;-82
2023/08/23 06:41:59;;;;;;;7.60;3.65;;;16.70;99.90;;;;;;5059132;28;20324;-84
2023/08/23 06:44:26;;;;;;;6.63;3.20;;;16.90;99.90;;;;;;5059851;28;20224;-81
2023/08/23 06:46:53;;;;;;;7.28;3.67;;;17.00;99.90;;;;;;5068604;28;20748;-82
2023/08/23 06:49:20;;;;;;;7.53;3.17;;;17.10;99.90;;;;;;5068013;28;20222;-83
2023/08/23 06:51:47;;;;;;;5.85;2.80;;;17.30;99.90;;;;;;5063006;28;20234;-83
2023/08/23 06:54:14;;;;;;;6.18;3.33;;;17.40;99.90;;;;;;5071090;28;20752;-82
2023/08/23 06:56:41;;;;;;;9.23;2.75;;;17.50;99.90;;;;;;5068362;28;20583;-81
2023/08/23 06:59:07;;;;;;;6.53;3.05;;;17.60;99.90;;;;;;5067300;28;20211;-82
2023/08/23 07:01:34;;;;;;;5.53;2.72;;;17.70;99.90;;;;;;5059975;28;20766;-83
2023/08/23 07:04:00;;;;;;;5.57;3.42;;;17.90;99.90;;;;;;5063601;28;20223;-82
2023/08/23 07:06:31;;;;;;;5.63;2.95;;;18.00;99.90;;;;;;5064003;28;20614;-82
2023/08/23 07:08:58;;;;;;;4.28;2.40;;;18.20;99.90;;;;;;5065932;28;20216;-82
2023/08/23 07:11:24;;;;;;;5.35;2.47;;;18.30;99.90;;;;;;5067082;28;20245;-84
2023/08/23 07:13:51;;;;;;;7.60;2.60;;;18.50;99.90;;;;;;5060730;28;20711;-82
2023/08/23 07:16:18;;;;;;;3.83;2.13;;;18.60;99.90;;;;;;5048997;28;20228;-82
2023/08/23 07:18:44;;;;;;;6.68;2.72;;;18.60;99.90;;;;;;5063624;28;20808;-82
2023/08/23 07:21:11;;;;;;;3.42;2.50;;;18.70;99.90;;;;;;5055769;28;20220;-82
2023/08/23 07:23:40;;;;;;;4.18;2.50;;;18.80;99.90;;;;;;5069415;28;20239;-81
2023/08/23 07:26:06;;;;;;;4.32;2.70;;;18.90;99.90;;;;;;5067588;28;20223;-81
2023/08/23 07:28:33;;;;;;;5.47;2.42;;;18.90;99.90;;;;;;5062334;28;20238;-84
2023/08/23 07:31:00;;;;;;;5.15;2.30;;;19.00;99.90;;;;;;5057996;28;20287;-82
2023/08/23 07:33:27;;;;;;;6.45;2.65;;;19.10;99.90;;;;;;5061528;28;20234;-81
2023/08/23 07:35:57;;;;;;;5.13;2.30;;;19.20;99.90;;;;;;5076477;28;20632;-82
2023/08/23 07:38:24;;;;;;;4.22;2.65;;;19.30;99.90;;;;;;5052562;28;20285;-81
2023/08/23 07:40:56;;;;;;;4.75;2.10;;;19.40;99.90;;;;;;5067848;28;20617;-82
2023/08/23 07:43:23;;;;;;;4.63;2.08;;;19.60;99.90;;;;;;5071555;28;20288;-81
2023/08/23 07:45:52;;;;;;;4.13;2.00;;;19.90;99.90;;;;;;5064767;28;20233;-81
2023/08/23 07:48:19;;;;;;;4.50;2.13;;;20.20;99.90;;;;;;5069378;28;20323;-81
2023/08/23 07:50:48;;;;;;;1.88;1.63;;;20.50;99.90;;;;;;5058774;28;20216;-83
2023/08/23 07:53:15;;;;;;;5.28;1.90;;;20.80;99.90;;;;;;5051293;28;20748;-82
2023/08/23 07:55:42;;;;;;;3.78;1.63;;;21.20;99.90;;;;;;5066708;28;20736;-82
2023/08/23 07:58:10;;;;;;;3.25;1.60;;;21.80;99.90;;;;;;5060922;28;20680;-82
2023/08/23 08:00:36;;;;;;;5.63;1.90;;;22.40;99.90;;;;;;5054923;28;20868;-81
2023/08/23 08:03:03;;;;;;;2.88;1.70;;;23.00;99.90;;;;;;5063511;28;20463;-82
2023/08/23 08:05:30;;;;;;;2.22;1.50;;;23.40;99.90;;;;;;5062048;28;20219;-82
2023/08/23 08:07:57;;;;;;;3.45;1.80;;;23.70;99.90;;;;;;5074920;28;20226;-82
2023/08/23 08:10:25;;;;;;;3.53;1.60;;;23.90;99.90;;;;;;5066827;28;20228;-82
2023/08/23 08:12:51;;;;;;;2.83;1.48;;;23.90;99.90;;;;;;5071197;28;20418;-83
2023/08/23 08:15:19;;;;;;;4.25;2.25;;;23.80;99.90;;;;;;5059117;28;20234;-83
2023/08/23 08:17:50;;;;;;;3.95;1.95;;;23.70;99.90;;;;;;5063246;28;20220;-82
2023/08/23 08:20:17;;;;;;;2.78;1.63;;;23.40;99.90;;;;;;5060661;28;20252;-81
2023/08/23 08:22:44;;;;;;;3.33;1.60;;;23.20;99.90;;;;;;5061019;28;20239;-83
2023/08/23 08:25:11;;;;;;;3.28;1.20;;;23.00;99.90;;;;;;5064210;28;20233;-82
2023/08/23 08:27:38;;;;;;;3.08;1.30;;;22.80;99.90;;;;;;5065722;28;20741;-81
2023/08/23 08:30:05;;;;;;;2.28;1.35;;;22.60;99.90;;;;;;5073945;28;20238;-82
2023/08/23 08:32:33;;;;;;;1.85;1.13;;;22.50;99.90;;;;;;5066291;28;20227;-84
2023/08/23 08:35:01;;;;;;;2.80;1.38;;;22.60;99.90;;;;;;5054776;28;20229;-81
2023/08/23 08:37:27;;;;;;;2.63;1.50;;;22.90;99.90;;;;;;5060387;28;20223;-81
2023/08/23 08:39:54;;;;;;;2.28;1.55;;;23.40;99.90;;;;;;5058576;28;20746;-82
2023/08/23 08:42:21;;;;;;;3.70;1.88;;;23.80;99.90;;;;;;5064975;28;20222;-83
2023/08/23 08:44:49;;;;;;;1.98;1.42;;;24.10;99.90;;;;;;5060665;28;20318;-81
2023/08/23 08:47:15;;;;;;;3.20;1.27;;;24.20;99.90;;;;;;5049735;28;20315;-81
2023/08/23 08:49:43;;;;;;;3.05;1.20;;;24.30;99.90;;;;;;5070394;28;20291;-81
2023/08/23 08:52:13;;;;;;;3.28;1.40;;;24.30;99.90;;;;;;5059736;28;20268;-82
2023/08/23 08:54:43;;;;;;;1.90;1.20;;;24.40;99.90;;;;;;5056648;28;20226;-82
2023/08/23 08:57:11;;;;;;;2.20;1.15;;;24.70;99.90;;;;;;5075059;28;20272;-83
2023/08/23 08:59:41;;;;;;;2.60;1.33;;;25.20;99.90;;;;;;5059891;28;20322;-82
2023/08/23 09:02:11;;;;;;;2.20;1.50;;;25.80;99.70;;;;;;5056942;28;20222;-81
2023/08/23 09:04:38;;;;;;;2.97;1.63;;;26.30;98.90;;;;;;5056758;28;20259;-81
2023/08/23 09:07:07;;;;;;;2.45;1.50;;;26.80;98.60;;;;;;5060903;28;20273;-81
2023/08/23 09:09:34;;;;;;;3.20;1.40;;;27.40;98.00;;;;;;5071329;28;20334;-84
2023/08/23 09:12:01;;;;;;;3.42;1.73;;;28.00;98.00;;;;;;5062384;28;20219;-82
2023/08/23 09:14:29;;;;;;;1.75;1.30;;;28.60;97.30;;;;;;5071964;28;20290;-81
2023/08/23 09:16:56;;;;;;;2.45;1.20;;;29.00;94.90;;;;;;5068765;28;20298;-82
2023/08/23 09:19:22;;;;;;;2.30;1.13;;;29.40;94.60;;;;;;5067047;28;20310;-84
2023/08/23 09:21:50;;;;;;;2.58;1.25;;;29.70;94.00;;;;;;5071357;28;20226;-81
2023/08/23 09:24:18;;;;;;;2.50;1.08;;;30.10;93.20;;;;;;5055477;28;20220;-84
2023/08/23 09:26:45;;;;;;;2.70;1.30;;;30.40;91.70;;;;;;5066786;28;20269;-83
2023/08/23 09:29:13;;;;;;;1.98;1.30;;;30.70;91.80;;;;;;5058436;28;20227;-83
2023/08/23 09:31:40;;;;;;;2.28;1.05;;;31.00;91.30;;;;;;5076644;28;20306;-82
2023/08/23 09:34:12;;;;;;;2.25;1.00;;;31.20;90.20;;;;;;5075839;28;20218;-82
2023/08/23 09:36:40;;;;;;;1.27;0.90;;;31.10;87.30;;;;;;5068403;28;20309;-83
2023/08/23 09:39:09;;;;;;;1.98;0.98;;;31.10;87.90;;;;;;5055331;28;20224;-83
2023/08/23 09:41:39;;;;;;;2.22;0.90;;;31.00;86.20;;;;;;5064018;28;20327;-83
2023/08/23 09:44:06;;;;;;;0.98;0.70;;;30.80;85.20;;;;;;5062184;28;20223;-83
2023/08/23 09:46:35;;;;;;;4.50;1.23;;;30.80;86.10;;;;;;5077903;28;20226;-82
2023/08/23 09:49:04;;;;;;;1.67;1.08;;;30.90;85.10;;;;;;5065033;28;20222;-82
2023/08/23 09:51:36;;;;;;;1.85;0.90;;;31.10;84.90;;;;;;5056659;28;20741;-81
2023/08/23 09:54:08;;;;;;;2.53;1.10;;;31.20;82.20;;;;;;5064912;28;20219;-82
2023/08/23 09:56:37;;;;;;;2.63;0.80;;;31.40;82.90;;;;;;5058886;28;20232;-86
2023/08/23 09:59:03;;;;;;;1.67;0.93;;;31.60;82.30;;;;;;5069708;28;20224;-82
2023/08/23 10:01:31;;;;;;;1.83;1.10;;;31.80;82.60;;;;;;5060118;28;20234;-82
2023/08/23 10:03:58;;;;;;;1.75;1.00;;;31.90;81.10;;;;;;5067572;28;20223;-82
2023/08/23 10:06:26;;;;;;;2.70;0.95;;;32.10;79.20;;;;;;5069759;28;20222;-83
2023/08/23 10:08:55;;;;;;;2.47;1.05;;;32.20;78.60;;;;;;5061594;28;20470;-83
2023/08/23 10:11:22;;;;;;;2.15;1.00;;;32.30;77.00;;;;;;5057584;28;20220;-83
2023/08/23 10:13:52;;;;;;;1.70;0.90;;;32.50;76.50;;;;;;5061000;28;20227;-83
2023/08/23 10:16:22;;;;;;;2.40;0.95;;;32.60;75.00;;;;;;5065191;28;20490;-81
2023/08/23 10:18:49;;;;;;;1.67;0.82;;;32.70;73.40;;;;;;5070242;28;20233;-82
2023/08/23 10:21:17;;;;;;;1.73;1.00;;;32.80;73.30;;;;;;5071972;28;20223;-82
2023/08/23 10:23:44;;;;;;;1.52;0.90;;;32.90;72.80;;;;;;5070590;28;20232;-83
2023/08/23 10:26:18;;;;;;;2.92;1.25;;;33.00;71.30;;;;;;5057341;28;20608;-83
2023/08/23 10:28:53;;;;;;;2.38;0.63;;;33.00;70.90;;;;;;5080139;28;20772;-82
2023/08/23 10:31:26;;;;;;;2.15;0.75;;;33.10;69.10;;;;;;5075290;28;20230;-82
2023/08/23 10:33:57;;;;;;;1.70;0.88;;;33.10;69.20;;;;;;5068836;28;20227;-83
2023/08/23 10:36:28;;;;;;;1.92;1.00;;;33.10;67.20;;;;;;5072345;28;20233;-82
2023/08/23 10:38:55;;;;;;;2.63;0.98;;;33.00;67.30;;;;;;5078949;28;20293;-81
2023/08/23 10:41:23;;;;;;;1.20;0.85;;;33.00;68.90;;;;;;5067361;28;20223;-82
2023/08/23 10:43:49;;;;;;;1.67;1.00;;;32.90;68.80;;;;;;5079630;28;20223;-82
2023/08/23 10:46:19;;;;;;;0.98;0.80;;;32.90;69.10;;;;;;5076106;28;20247;-81
2023/08/23 10:48:46;;;;;;;1.55;1.00;;;33.00;69.10;;;;;;5080290;28;20225;-82
2023/08/23 10:51:15;;;;;;;1.95;0.98;;;33.20;69.30;;;;;;5071409;28;20860;-84
2023/08/23 10:53:42;;;;;;;1.55;1.00;;;33.30;67.60;;;;;;5073366;28;20261;-82
2023/08/23 10:56:10;;;;;;;2.03;0.90;;;33.40;67.10;;;;;;5061997;28;20251;-85
2023/08/23 10:58:37;;;;;;;1.80;0.90;;;33.40;66.20;;;;;;5063417;28;20820;-83
2023/08/23 11:01:04;;;;;;;1.42;0.90;;;33.40;65.60;;;;;;5071468;28;20223;-81
2023/08/23 11:03:34;;;;;;;1.30;0.77;;;33.40;66.00;;;;;;5078874;28;20244;-82
2023/08/23 11:06:01;;;;;;;1.85;0.95;;;33.50;65.20;;;;;;5063797;28;20331;-82
2023/08/23 11:08:28;;;;;;;1.20;0.80;;;33.60;65.00;;;;;;5060695;28;20311;-82
2023/08/23 11:10:54;;;;;;;2.10;0.90;;;33.60;65.00;;;;;;5067027;28;20230;-82
2023/08/23 11:13:21;;;;;;;1.60;0.77;;;33.60;64.30;;;;;;5069260;28;20227;-82
2023/08/23 11:15:48;;;;;;;1.30;0.80;;;33.60;62.80;;;;;;5060503;28;20306;-84
2023/08/23 11:18:15;;;;;;;1.95;1.10;;;33.40;62.00;;;;;;5051081;28;20243;-82
2023/08/23 11:20:44;;;;;;;2.05;1.00;;;33.20;61.80;;;;;;5071896;28;20246;-82
2023/08/23 11:23:10;;;;;;;2.53;1.10;;;32.90;61.90;;;;;;5063071;28;20224;-83
2023/08/23 11:25:37;;;;;;;1.40;0.90;;;32.70;62.80;;;;;;5065221;28;20227;-83
2023/08/23 11:28:06;;;;;;;2.55;0.60;;;32.40;64.00;;;;;;5071781;28;20219;-82
2023/08/23 11:30:33;;;;;;;2.88;0.98;;;32.20;63.80;;;;;;5059482;28;20235;-82
2023/08/23 11:33:00;;;;;;;2.22;0.98;;;32.10;64.10;;;;;;5069684;28;20724;-82
2023/08/23 11:35:28;;;;;;;1.40;0.70;;;31.90;64.00;;;;;;5055895;28;20254;-83
2023/08/23 11:37:57;;;;;;;1.30;0.90;;;31.80;64.00;;;;;;5071596;28;20843;-82
2023/08/23 11:40:24;;;;;;;2.50;0.90;;;31.60;64.30;;;;;;5068631;28;20231;-83
2023/08/23 11:42:53;;;;;;;1.13;0.60;;;31.50;64.40;;;;;;5060743;28;20230;-83
2023/08/23 11:45:20;;;;;;;2.58;0.98;;;31.40;64.30;;;;;;5074599;28;20227;-80
2023/08/23 11:47:52;;;;;;;3.40;1.00;;;31.30;64.40;;;;;;5082083;28;20244;-81
2023/08/23 11:50:20;;;;;;;1.25;0.85;;;31.10;64.10;;;;;;5067307;28;20251;-81
2023/08/23 11:52:48;;;;;;;0.90;0.82;;;30.80;64.70;;;;;;5067630;28;20224;-81
2023/08/23 11:55:22;;;;;;;1.10;0.90;;;30.50;65.80;;;;;;5076515;28;20764;-80
2023/08/23 11:57:53;;;;;;;1.60;0.88;;;30.20;66.60;;;;;;5078236;28;20222;-81
2023/08/23 12:00:20;;;;;;;3.22;1.05;;;30.00;66.60;;;;;;5065063;28;20915;-80
2023/08/23 12:02:46;;;;;;;1.50;0.80;;;29.80;67.00;;;;;;5079775;28;20229;-80
2023/08/23 12:05:14;;;;;;;2.10;1.15;;;29.60;68.20;;;;;;5072154;28;20233;-80
2023/08/23 12:07:41;;;;;;;1.95;0.70;;;29.60;68.60;;;;;;5072823;28;20764;-79
2023/08/23 12:10:09;;;;;;;2.40;0.93;;;29.50;69.50;;;;;;5075883;28;20310;-79
2023/08/23 12:12:37;;;;;;;3.55;0.80;;;29.40;69.50;;;;;;5068558;28;20227;-80
2023/08/23 12:15:05;;;;;;;1.95;1.00;;;29.40;69.80;;;;;;5066128;28;20746;-82
2023/08/23 12:17:32;;;;;;;3.38;1.02;;;29.50;69.50;;;;;;5053828;28;20249;-81
2023/08/23 12:19:59;;;;;;;1.17;0.80;;;29.60;69.20;;;;;;5069426;28;20232;-82
2023/08/23 12:22:25;;;;;;;1.80;1.00;;;29.70;69.70;;;;;;5072847;28;20219;-82
2023/08/23 12:24:52;;;;;;;0.82;0.63;;;30.00;69.70;;;;;;5069823;28;20228;-80
2023/08/23 12:27:19;;;;;;;2.53;1.00;;;30.30;69.40;;;;;;5067176;28;20227;-80
2023/08/23 12:29:47;;;;;;;1.50;0.93;;;30.50;68.00;;;;;;5064483;28;20311;-80
2023/08/23 12:32:13;;;;;;;5.82;1.30;;;30.80;67.10;;;;;;5075036;28;20231;-79
2023/08/23 12:34:40;;;;;;;2.97;1.48;;;30.90;66.60;;;;;;5073436;28;20229;-81
2023/08/23 12:37:07;;;;;;;1.45;0.90;;;31.00;66.30;;;;;;5060165;28;20223;-81
2023/08/23 12:39:34;;;;;;;2.60;1.20;;;30.90;66.50;;;;;;5066036;28;20215;-80
2023/08/23 12:42:00;;;;;;;1.60;1.10;;;30.70;65.60;;;;;;5068142;28;20222;-81
2023/08/23 12:44:28;;;;;;;1.20;1.00;;;30.50;66.00;;;;;;5063684;28;20603;-81
2023/08/23 12:46:56;;;;;;;4.47;1.00;;;30.20;66.00;;;;;;5066836;28;20649;-81
2023/08/23 12:49:23;;;;;;;1.98;1.10;;;29.90;67.10;;;;;;5076030;28;20258;-81